CheckWX is a tool to help pilots better visualize weather data.  It is not intended as a substitute for an official pre-flight weather briefing.

12:31:16 UTC

KEED TAF
Needles Airport
Needles, California, USA
KEED 131120Z 1312/1412 VRB04KT P6SM FEW250 FM131900 02005KT P6SM SCT250 FM140200 25006KT P6SM FEW150 BKN250

Dec-13@
12:00 UTC

Dec-13 @ 12:00 UTC

Dec-13@
19:00 UTC

Dec-13 @ 19:00 UTC

KEED 131120Z 1312/1412 VRB04KT P6SM FEW250
Wind
  • Variable at 4 KTS
Cloud Levels
  • Few at 25,000' AGL

Dec-13@
19:00 UTC

Dec-13 @ 19:00 UTC

Dec-14@
02:00 UTC

Dec-14 @ 02:00 UTC

FM131900 02005KT P6SM SCT250

From

From Standard forecast or significant change

Wind
  • 020° at 5 KTS
Cloud Levels
  • Scattered at 25,000' AGL

Dec-14@
02:00 UTC

Dec-14 @ 02:00 UTC

Dec-14@
12:00 UTC

Dec-14 @ 12:00 UTC

FM140200 25006KT P6SM FEW150 BKN250

From

From Standard forecast or significant change

Wind
  • 250° at 6 KTS
Cloud Levels
  • Few at 15,000' AGL
  • Broken at 25,000' AGL